Tiempo atmosférico en la estación meteorológica de Brozas , Cáceres (411 m.)



Fecha
DESCASC
Temp. máxima en grados centígrados (hora)
DESCASC
Temp. mínima en grados centígrados (hora)
DESCASC
Temp. media en grados centígrados
DESCASC
Racha de viento máxima en m/sg (hora)
DESCASC
Velocidad máxima media en intervalos de 10 minutos(hora)
DESCASC
Precipitaciones diarias en mm
DESCASC
Precipitaciones de 00:00 a 06:00 en mm
DESCASC
Precipitaciones de 06:00 a 12:00 en mm
DESCASC
Precipitaciones de 12:00 a 18:00 en mm
DESCASC
Precipitaciones de 18:00 a 24:00 en mm
DESCASC
24-09-2020 23.8 (17:10) 13.3 (23:59) 18.5 11.94 (19:10) 8.89 (19:10) 0 0 0 0 0
23-09-2020 23.3 (17:10) 16.5 (00:00) 19.9 8.61 (14:00) 5.56 (20:10) 3.4 0.2 0 1.4 1.8
22-09-2020 26.5 (16:50) 14.2 (00:00) 20.3 8.06 (19:50) 5.83 (20:10) 0 0 0 0 0
21-09-2020 25.2 (17:10) 12.9 (00:00) 19.1 9.17 (19:50) 5.83 (20:10) 0 0 0 0 0
20-09-2020 24.7 (17:10) 16.4 (00:00) 20.6 9.72 (17:20) 6.67 (17:20) 1 0.6 0.4 0 0
19-09-2020 22.6 (16:00) 15.5 (00:00) 19.1 14.17 (01:30) 10 (01:30) 2 2 0 0 0
18-09-2020 22.1 (13:10) 14.7 (00:00) 18.4 16.67 (14:50) 11.39 (14:50) 10 0.2 0 0.6 9.2
17-09-2020 26 (15:30) 17 (00:00) 21.5 15.28 (17:20) 8.89 (17:20) 9.6 0 0 0 9.6
16-09-2020 29.2 (16:40) 15.9 (00:00) 22.6 8.06 (13:30) 4.72 (13:30) 0 0 0 0 0
15-09-2020 29.4 (17:40) 15.8 (00:00) 22.6 8.06 (16:30) 5.28 (17:10) 0 0 0 0 0
14-09-2020 31.1 (17:00) 20.8 (00:00) 25.9 11.39 (13:30) 8.06 (18:50) 0 0 0 0 0
13-09-2020 35.2 (17:00) 22.2 (00:00) 28.7 11.67 (17:10) 7.5 (16:10) 0 0 0 0 0
12-09-2020 35.9 (17:00) 20.7 (00:00) 28.3 9.17 (17:10) 6.39 (07:40) 0 0 0 0 0
11-09-2020 34.9 (17:40) 18.7 (00:00) 26.8 7.5 (11:00) 5 (09:20) 0 0 0 0 0
10-09-2020 33.3 (17:00) 17.2 (00:00) 25.3 8.33 (16:30) 5 (10:20) 0 0 0 0 0
09-09-2020 31.8 (17:40) 17.2 (00:00) 24.5 9.72 (18:10) 5.28 (01:10) 0 0 0 0 0
08-09-2020 29 (18:30) 17.2 (00:00) 23.1 13.89 (09:40) 10.28 (09:10) 0 0 0 0 0
07-09-2020 32.1 (18:00) 19.1 (07:30) 25.6 12.22 (10:00) 8.89 (10:00) 0 0 0 0 0
06-09-2020 35.6 (18:10) 20.2 (00:00) 27.9 9.17 (06:20) 6.94 (06:20) 0 0 0 0 0
05-09-2020 35.8 (17:20) 21.3 (00:00) 28.5 6.94 (08:40) 5.28 (07:30) 0 0 0 0 0
04-09-2020 35.4 (17:50) 19.7 (00:00) 27.6 8.33 (02:50) 4.72 (02:50) 0 0 0 0 0
03-09-2020 34.9 (16:30) 18.3 (00:00) 26.6 7.5 (09:50) 5.56 (09:50) 0 0 0 0 0
02-09-2020 32.8 (17:10) 13.9 (00:00) 23.3 10.56 (09:40) 7.5 (09:30) 0 0 0 0 0
01-09-2020 31.5 (18:40) 16.7 (00:00) 24.1 7.5 (21:20) 6.11 (21:20) 0 0 0 0 0
31-08-2020 29.6 (17:00) 15 (00:00) 22.3 9.72 (09:30) 6.94 (09:30) 0 0 0 0 0
30-08-2020 26.8 (16:00) 11.4 (00:00) 19.1 9.17 (00:40) 6.39 (01:20) 0 0 0 0 0
29-08-2020 26 (17:20) 12.9 (00:00) 19.4 13.06 (12:20) 9.44 (10:00) 0 0 0 0 0
28-08-2020 30.6 (17:10) 16.9 (00:00) 23.8 13.89 (21:00) 10.28 (20:50) 0 0 0 0 0
27-08-2020 37.2 (18:00) 19.3 (00:00) 28.3 11.67 (20:20) 9.17 (20:20) 0 0 0 0 0
26-08-2020 38.1 (18:00) 19.4 (00:00) 28.7 9.72 (22:20) 7.22 (22:00) 0 0 0 0 0

Gráficas

Temp. máximas Temp. mínimas Temp. medias Precipitaciones Rachas de viento máximas Velocidades máximas media en intervalos de 10 minutos

Datos horarios

Fecha y hora oficial Temperatura (ºC) Velocidad del viento (km/h) Dirección del viento Racha (km/h) Dirección de racha Precipitación (mm) Presión (hPa) Tendencia (hPa) Humedad (%)
2020-09-24 23:00:00 14.5 18 Noroeste 21 Noroeste 0 -- -- 71
2020-09-24 22:00:00 16.1 18 Noroeste 28 Oeste 0 -- -- 67
2020-09-24 21:00:00 17.3 19 Noroeste 33 Noroeste 0 -- -- 62
2020-09-24 20:00:00 19.4 28 Noroeste 43 Noroeste 0 -- -- 57
2020-09-24 19:00:00 21.9 31 Noroeste 38 Noroeste 0 -- -- 54
2020-09-24 18:00:00 22.2 25 Noroeste 35 Oeste 0 -- -- 53
2020-09-24 17:00:00 23.5 24 Oeste 40 Noroeste 0 -- -- 49
2020-09-24 16:00:00 22.8 23 Oeste 37 Oeste 0 -- -- 51
2020-09-24 15:00:00 21.3 24 Oeste 37 Oeste 0 -- -- 54
2020-09-24 14:00:00 20.2 26 Oeste 35 Oeste 0 -- -- 57
2020-09-24 13:00:00 21.3 27 Oeste 35 Oeste 0 -- -- 66
2020-09-24 12:00:00 19.4 23 Oeste 33 Oeste 0 -- -- 77
2020-09-24 11:00:00 18.5 20 Oeste 29 Oeste 0 -- -- 88
2020-09-24 10:00:00 18 17 Sudoeste 22 Sudoeste 0 -- -- 93
2020-09-24 09:00:00 17.1 10 Sudoeste 14 Sudoeste 0 -- -- 95
2020-09-24 08:00:00 17.3 10 Sudoeste 18 Sudoeste 0 -- -- 96
2020-09-24 07:00:00 17.5 10 Sudoeste 14 Sudoeste 0 -- -- 94
2020-09-24 06:00:00 17.7 9 Oeste 14 Oeste 0 -- -- 95
2020-09-24 05:00:00 17.7 9 Oeste 12 Noroeste 0 -- -- 95
2020-09-24 04:00:00 17.7 9 Oeste 12 Oeste 0 -- -- 94
2020-09-24 03:00:00 18 8 Sudoeste 12 Sudoeste 0 -- -- 96
2020-09-24 02:00:00 17.9 7 Sudoeste 15 Sudoeste 0 -- -- 96
2020-09-24 01:00:00 17.8 10 Sudoeste 15 Sudoeste 0 -- -- 95
2020-09-24 00:00:00 17.9 12 Sudoeste 15 Sudoeste 0 -- -- 93
2020-09-23 23:00:00 18 13 Sudoeste 19 Sudoeste 0 -- -- 93
2020-09-23 22:00:00 18.4 13 Sudoeste 24 Oeste 0 -- -- 91
2020-09-23 21:00:00 18.5 16 Sudoeste 27 Oeste 0 -- -- 92
2020-09-23 20:00:00 18.9 18 Oeste 24 Oeste 1 -- -- 90
2020-09-23 19:00:00 20.3 17 Sur 24 Sur 0.8 -- -- 86
2020-09-23 18:00:00 21.9 13 Sur 21 Sudoeste 0 -- -- 72
2020-09-23 17:00:00 22.6 9 Sudoeste 21 Sudoeste 0 -- -- 72
2020-09-23 16:00:00 20.3 8 Oeste 26 Oeste 1.4 -- -- 86
2020-09-23 15:00:00 21.1 10 Noroeste 25 Sudoeste 0 -- -- 75
2020-09-23 14:00:00 21.1 18 Sudoeste 31 Sudoeste 0 -- -- 73
2020-09-23 13:00:00 20.4 14 Sudoeste 24 Sudoeste 0 -- -- 77
2020-09-23 12:00:00 18.8 14 Sudoeste 21 Sur 0 -- -- 87
2020-09-23 11:00:00 18 13 Sudoeste 21 Sur 0 -- -- 92
2020-09-23 10:00:00 17.2 12 Sur 15 Sur 0 -- -- 96
2020-09-23 09:00:00 16.7 8 Sur 12 Sur 0 -- -- 97
2020-09-23 08:00:00 16.5 5 Sur 13 Sudoeste 0 -- -- 96
2020-09-23 07:00:00 16.5 10 Sudoeste 14 Sudoeste 0 -- -- 95
2020-09-23 06:00:00 16.5 10 Sudoeste 15 Oeste 0 -- -- 95
2020-09-23 05:00:00 16.6 8 Sudoeste 14 Oeste 0 -- -- 95
2020-09-23 04:00:00 16.9 10 Oeste 17 Oeste 0 -- -- 93
2020-09-23 03:00:00 17.2 10 Oeste 18 Oeste 0.2 -- -- 93
2020-09-23 02:00:00 17.6 15 Noroeste 22 Noroeste 0 -- -- 94
2020-09-23 01:00:00 18.3 14 Noroeste 26 Oeste 0 -- -- 89
2020-09-23 00:00:00 18.9 19 Oeste 27 Oeste 0 -- -- 83
2020-09-22 23:00:00 20.5 16 Oeste 26 Oeste 0 -- -- 69
2020-09-22 22:00:00 20.7 13 Oeste 23 Oeste 0 -- -- 65
2020-09-22 21:00:00 21.7 18 Oeste 28 Oeste 0 -- -- 60
2020-09-22 20:00:00 22.7 21 Oeste 29 Oeste 0 -- -- 56
2020-09-22 19:00:00 24.5 21 Oeste 27 Oeste 0 -- -- 50
2020-09-22 18:00:00 25.5 13 Noroeste 24 Oeste 0 -- -- 46
2020-09-22 17:00:00 25.6 15 Oeste 26 Sudoeste 0 -- -- 46
2020-09-22 16:00:00 25.3 12 Oeste 23 Oeste 0 -- -- 49
2020-09-22 15:00:00 24.5 11 Sudoeste 26 Sudoeste 0 -- -- 51
2020-09-22 14:00:00 23.5 13 Sudoeste 22 Sudoeste 0 -- -- 54
2020-09-22 13:00:00 21.7 9 Oeste 19 Oeste 0 -- -- 60
2020-09-22 12:00:00 19.8 7 Noroeste 15 Oeste 0 -- -- 69
2020-09-22 11:00:00 17.3 10 Oeste 14 Oeste 0 -- -- 81
2020-09-22 10:00:00 16.3 6 Noroeste 11 Noroeste 0 -- -- 86
2020-09-22 09:00:00 14.8 6 Noroeste 9 Oeste 0 -- -- 91
2020-09-22 08:00:00 14.5 9 Oeste 12 Oeste 0 -- -- 90
2020-09-22 07:00:00 14.7 8 Oeste 9 Oeste 0 -- -- 89
2020-09-22 06:00:00 14.8 10 Oeste 10 Oeste 0 -- -- 89
2020-09-22 05:00:00 14.8 9 Oeste 10 Oeste 0 -- -- 88
2020-09-22 04:00:00 15.1 9 Oeste 14 Noroeste 0 -- -- 86
2020-09-22 03:00:00 15.5 13 Noroeste 15 Noroeste 0 -- -- 85
2020-09-22 02:00:00 16.1 13 Noroeste 21 Oeste 0 -- -- 82
2020-09-22 01:00:00 16.5 12 Oeste 17 Oeste 0 -- -- 79
2020-09-22 00:00:00 16.9 12 Noroeste 23 Noroeste 0 -- -- 77
2020-09-21 23:00:00 17.9 18 Noroeste 23 Noroeste 0 -- -- 72
2020-09-21 22:00:00 19.1 18 Noroeste 26 Noroeste 0 -- -- 65
2020-09-21 21:00:00 20.1 17 Noroeste 27 Noroeste 0 -- -- 60
2020-09-21 20:00:00 23 18 Noroeste 33 Oeste 0 -- -- 46
2020-09-21 19:00:00 24.7 16 Noroeste 27 Noroeste 0 -- -- 42
2020-09-21 18:00:00 24.8 19 Noroeste 31 Noroeste 0 -- -- 40
2020-09-21 17:00:00 25.1 15 Noroeste 28 Oeste 0 -- -- 39
2020-09-21 16:00:00 24.6 9 Oeste 20 Oeste 0 -- -- 41
2020-09-21 15:00:00 23.3 8 Noroeste 21 Noroeste 0 -- -- 44
2020-09-21 14:00:00 22.2 11 Noroeste 19 Noroeste 0 -- -- 47
2020-09-21 13:00:00 20.9 7 Noroeste 15 Noroeste 0 -- -- 52
2020-09-21 12:00:00 18.5 8 Noroeste 13 Noroeste 0 -- -- 68
2020-09-21 11:00:00 16.7 6 Noroeste 12 Noroeste 0 -- -- 80
2020-09-21 10:00:00 15 10 Noroeste 13 Oeste 0 -- -- 93
2020-09-21 09:00:00 13.5 9 Noroeste 13 Noroeste 0 -- -- 97
2020-09-21 08:00:00 12.9 11 Noroeste 14 Noroeste 0 -- -- 96
2020-09-21 07:00:00 13.2 10 Noroeste 13 Noroeste 0 -- -- 95
2020-09-21 06:00:00 14 9 Noroeste 12 Oeste 0 -- -- 92
2020-09-21 05:00:00 14.1 9 Noroeste 13 Noroeste 0 -- -- 91
2020-09-21 04:00:00 14.4 10 Noroeste 12 Noroeste 0 -- -- 90
2020-09-21 03:00:00 14.9 10 Noroeste 12 Noroeste 0 -- -- 87
2020-09-21 02:00:00 15.1 10 Noroeste 14 Noroeste 0 -- -- 87
2020-09-21 01:00:00 15.7 13 Noroeste 15 Noroeste 0 -- -- 85
2020-09-21 00:00:00 16.4 14 Noroeste 17 Noroeste 0 -- -- 83
2020-09-20 23:00:00 17.7 14 Noroeste 22 Noroeste 0 -- -- 77
2020-09-20 22:00:00 19 19 Oeste 24 Oeste 0 -- -- 69
2020-09-20 21:00:00 19.8 16 Oeste 23 Oeste 0 -- -- 65
2020-09-20 20:00:00 22.2 18 Oeste 28 Oeste 0 -- -- 54
2020-09-20 19:00:00 23.9 22 Oeste 33 Oeste 0 -- -- 47
2020-09-20 18:00:00 24.6 23 Noroeste 35 Oeste 0 -- -- 47
2020-09-20 17:00:00 24.4 23 Oeste 32 Oeste 0 -- -- 51
2020-09-20 16:00:00 23.4 24 Oeste 34 Oeste 0 -- -- 58
2020-09-20 15:00:00 22.8 17 Oeste 28 Oeste 0 -- -- 62
2020-09-20 14:00:00 20.4 18 Oeste 27 Oeste 0 -- -- 82
2020-09-20 13:00:00 17.8 14 Oeste 25 Oeste 0 -- -- 95
2020-09-20 12:00:00 18.3 13 Sudoeste 20 Sudoeste 0 -- -- 89
2020-09-20 11:00:00 17.8 13 Sudoeste 19 Sudoeste 0.2 -- -- 93
2020-09-20 10:00:00 17.2 10 Sudoeste 14 Sudoeste 0 -- -- 97
2020-09-20 09:00:00 16.6 7 Sudoeste 13 Sur 0 -- -- 98
2020-09-20 08:00:00 16.5 9 Sudoeste 18 Sudoeste 0 -- -- 98
2020-09-20 07:00:00 16.5 10 Sudoeste 18 Sudoeste 0.2 -- -- 97
2020-09-20 06:00:00 16.6 15 Sudoeste 22 Sur 0.6 -- -- 96
2020-09-20 05:00:00 16.7 9 Sur 17 Sur 0 -- -- 94
2020-09-20 04:00:00 16.7 10 Sur 15 Sudoeste 0 -- -- 94
2020-09-20 03:00:00 16.6 12 Sudoeste 16 Sudoeste 0 -- -- 93
2020-09-20 02:00:00 16.7 12 Sudoeste 17 Sudoeste 0 -- -- 92
2020-09-20 01:00:00 16.8 14 Sudoeste 19 Sudoeste 0 -- -- 87
2020-09-20 00:00:00 17.6 12 Oeste 22 Oeste 0 -- -- 84
2020-09-19 23:00:00 18.6 16 Oeste 30 Oeste 0 -- -- 80
2020-09-19 22:00:00 19 9 Oeste 22 Oeste 0 -- -- 79
2020-09-19 21:00:00 19.7 17 Oeste 27 Oeste 0 -- -- 74
2020-09-19 20:00:00 20.3 15 Oeste 23 Noroeste 0 -- -- 70
2020-09-19 19:00:00 21.2 14 Sudoeste 31 Oeste 0 -- -- 63
2020-09-19 18:00:00 19.5 26 Oeste 39 Oeste 0 -- -- 71
2020-09-19 17:00:00 21.5 21 Sudoeste 32 Sudoeste 0 -- -- 60
2020-09-19 16:00:00 22.6 20 Sudoeste 28 Sudoeste 0 -- -- 56
2020-09-19 15:00:00 21.2 12 Sudoeste 25 Sudoeste 0 -- -- 61
2020-09-19 14:00:00 20.8 19 Oeste 35 Oeste 0 -- -- 63
2020-09-19 13:00:00 20.3 25 Oeste 35 Oeste 0 -- -- 69
2020-09-19 12:00:00 18.6 23 Oeste 34 Oeste 0 -- -- 76
2020-09-19 11:00:00 17.1 21 Sudoeste 27 Sudoeste 0 -- -- 86
2020-09-19 10:00:00 16.4 19 Sudoeste 26 Sudoeste 0 -- -- 94
2020-09-19 09:00:00 15.8 14 Sudoeste 21 Sudoeste 0 -- -- 96
2020-09-19 08:00:00 15.8 13 Sur 17 Sur 0 -- -- 96
2020-09-19 07:00:00 15.6 15 Sur 18 Sur 0 -- -- 96
2020-09-19 06:00:00 15.6 14 Sudoeste 30 Sudoeste 0 -- -- 96
2020-09-19 05:00:00 16 21 Sudoeste 32 Sudoeste 0 -- -- 94
2020-09-19 04:00:00 16.2 27 Sudoeste 43 Sur 0 -- -- 95
2020-09-19 03:00:00 16.1 27 Sudoeste 43 Sudoeste 0.6 -- -- 96
2020-09-19 02:00:00 16.3 33 Sudoeste 51 Sudoeste 0.4 -- -- 95
2020-09-19 01:00:00 16.2 30 Sur 40 Sur 1 -- -- 97
2020-09-19 00:00:00 16.6 24 Sur 48 Sur 0.8 -- -- 95
2020-09-18 23:00:00 16.9 31 Sur 45 Sur 0 -- -- 94
2020-09-18 22:00:00 16.6 30 Sur 40 Sur 0 -- -- 96
2020-09-18 21:00:00 16.6 25 Sur 35 Sur 0 -- -- 94
2020-09-18 20:00:00 16.4 22 Sur 43 Sudeste 4.6 -- -- 93
2020-09-18 19:00:00 16.5 17 Sudeste 44 Sudeste 3.8 -- -- 92
2020-09-18 18:00:00 18.6 30 Sur 50 Sur 0 -- -- 78
2020-09-18 17:00:00 21.3 39 Sur 51 Sur 0 -- -- 66
2020-09-18 16:00:00 17.6 28 Sur 49 Sudeste 0 -- -- 82
2020-09-18 15:00:00 17.7 33 Sudeste 60 Sudeste 0.6 -- -- 86
2020-09-18 14:00:00 21.1 25 Sur 41 Sur 0 -- -- 62
2020-09-18 13:00:00 21.7 19 Sudeste 36 Sudeste 0 -- -- 62
2020-09-18 12:00:00 19.9 19 Sudeste 34 Sudeste 0 -- -- 73
2020-09-18 11:00:00 16.9 13 Sudeste 24 Sudeste 0 -- -- 90
2020-09-18 10:00:00 15.8 18 Sudeste 24 Sudeste 0 -- -- 97
2020-09-18 09:00:00 15.1 10 Sudeste 14 Sudeste 0 -- -- 98
2020-09-18 08:00:00 14.8 7 Sudeste 17 Sur 0 -- -- 98
2020-09-18 07:00:00 15.4 9 Sudeste 15 Sur 0 -- -- 97
2020-09-18 06:00:00 15.8 6 Sur 14 Sur 0 -- -- 96
2020-09-18 05:00:00 16.5 5 Sur 9 Sudeste 0.2 -- -- 97
2020-09-18 04:00:00 16.4 5 Sur 10 Sur 0 -- -- 96
2020-09-18 03:00:00 16.6 8 Sur 9 Sur 0 -- -- 96
2020-09-18 02:00:00 16.8 7 Sudeste 15 Sur 0 -- -- 96
2020-09-18 01:00:00 17.2 10 Sur 19 Sur 0 -- -- 96
2020-09-18 00:00:00 17.3 9 Sudeste 17 Sur 0 -- -- 96
2020-09-17 23:00:00 17.3 7 Sudeste 22 Sudoeste 0 -- -- 95
2020-09-17 22:00:00 17.1 17 Sur 33 Sur 5.8 -- -- 95
2020-09-17 21:00:00 17.6 9 Sur 29 Oeste 3 -- -- 92
2020-09-17 20:00:00 18.5 17 Oeste 26 Oeste 0.8 -- -- 89
2020-09-17 19:00:00 19 9 Noroeste 19 Noroeste 0 -- -- 83
2020-09-17 18:00:00 19.6 11 Noroeste 55 Oeste 0 -- -- 85
2020-09-17 17:00:00 24.6 13 Sudeste 27 Sur 0 -- -- 52
2020-09-17 16:00:00 25.3 20 Sudeste 37 Sur 0 -- -- 51
2020-09-17 15:00:00 24.9 22 Sudeste 41 Sur 0 -- -- 52
2020-09-17 14:00:00 24.7 27 Sur 40 Sudeste 0 -- -- 51
2020-09-17 13:00:00 24.8 22 Sur 33 Sur 0 -- -- 52
2020-09-17 12:00:00 22.4 24 Sur 35 Sur 0 -- -- 64
2020-09-17 11:00:00 22.9 17 Sur 26 Sur 0 -- -- 62
2020-09-17 10:00:00 20.8 13 Sudeste 22 Sudeste 0 -- -- 71
2020-09-17 09:00:00 19.8 13 Sudeste 17 Sudeste 0 -- -- 70
2020-09-17 08:00:00 19.2 13 Sudeste 19 Sudeste 0 -- -- 69
2020-09-17 07:00:00 18.8 12 Sudeste 22 Sudeste 0 -- -- 70
2020-09-17 06:00:00 19.5 20 Sudeste 26 Sudeste 0 -- -- 68
2020-09-17 05:00:00 20.6 14 Sudeste 21 Sudeste 0 -- -- 61
2020-09-17 04:00:00 20.4 8 Este 13 Sudeste 0 -- -- 62
2020-09-17 03:00:00 19.7 6 Sur 9 Sur 0 -- -- 64
2020-09-17 02:00:00 19.8 8 Sur 13 Oeste 0 -- -- 61
2020-09-17 01:00:00 20.4 9 Sudoeste 17 Oeste 0 -- -- 59
2020-09-17 00:00:00 20.8 13 Oeste 21 Oeste 0 -- -- 59
2020-09-16 23:00:00 22 15 Oeste 21 Oeste 0 -- -- 53
2020-09-16 22:00:00 22.9 8 Noroeste 12 Noroeste 0 -- -- 49
2020-09-16 21:00:00 24.1 10 Noroeste 12 Noroeste 0 -- -- 44
2020-09-16 20:00:00 28.1 6 Oeste 14 Sudoeste 0 -- -- 37
2020-09-16 19:00:00 27.7 8 Sur 16 Sudeste 0 -- -- 36
2020-09-16 18:00:00 28.6 10 Sur 22 Sur 0 -- -- 34
2020-09-16 17:00:00 29.1 12 Sur 21 Sur 0 -- -- 34
2020-09-16 16:00:00 29 9 Oeste 23 Sur 0 -- -- 35
2020-09-16 15:00:00 28.5 4 Sur 23 Sur 0 -- -- 37
2020-09-16 14:00:00 28.5 12 Sur 29 Sur 0 -- -- 37
2020-09-16 13:00:00 27.3 6 Sur 15 Sudoeste 0 -- -- 40
2020-09-16 12:00:00 25.6 7 Sur 17 Sudeste 0 -- -- 44
2020-09-16 11:00:00 22.2 7 Este 15 Este 0 -- -- 55
2020-09-16 10:00:00 18.9 5 Nordeste 8 Nordeste 0 -- -- 70
2020-09-16 09:00:00 17.5 4 Nordeste 11 Nordeste 0 -- -- 77
2020-09-16 08:00:00 16.4 9 Nordeste 10 Nordeste 0 -- -- 77
2020-09-16 07:00:00 16 10 Norte 14 Noroeste 0 -- -- 79
2020-09-16 06:00:00 17 13 Noroeste 15 Noroeste 0 -- -- 75
2020-09-16 05:00:00 17.6 9 Noroeste 12 Oeste 0 -- -- 71
2020-09-16 04:00:00 18.4 10 Noroeste 13 Oeste 0 -- -- 69
2020-09-16 03:00:00 18.8 12 Noroeste 14 Oeste 0 -- -- 65
2020-09-16 02:00:00 19.5 9 Oeste 14 Oeste 0 -- -- 59
2020-09-16 01:00:00 20.8 10 Oeste 19 Oeste 0 -- -- 51
2020-09-16 00:00:00 21.6 9 Noroeste 14 Noroeste 0 -- -- 51
2020-09-15 23:00:00 22.2 10 Oeste 13 Noroeste 0 -- -- 47
2020-09-15 22:00:00 23.2 8 Sur 10 Sur 0 -- -- 44
2020-09-15 21:00:00 24.1 8 Sur 16 Sur 0 -- -- 43
2020-09-15 20:00:00 26.9 13 Sur 23 Sur 0 -- -- 37
2020-09-15 19:00:00 28.5 17 Sudoeste 23 Sur 0 -- -- 34
2020-09-15 18:00:00 28.8 17 Sudoeste 29 Sudoeste 0 -- -- 34
2020-09-15 17:00:00 29.1 17 Sur 29 Sur 0 -- -- 34
2020-09-15 16:00:00 28.9 16 Sur 26 Sur 0 -- -- 35
2020-09-15 15:00:00 28.3 12 Sur 27 Sur 0 -- -- 37
2020-09-15 14:00:00 26.3 8 Sudoeste 25 Sur 0 -- -- 45
2020-09-15 13:00:00 26 12 Sur 25 Sur 0 -- -- 46
2020-09-15 12:00:00 24 6 Sur 13 Sur 0 -- -- 55
2020-09-15 11:00:00 21.3 6 Sudoeste 12 Oeste 0 -- -- 64
2020-09-15 10:00:00 18.5 6 Oeste 12 Sudoeste 0 -- -- 78
2020-09-15 09:00:00 16.5 9 Oeste 16 Oeste 0 -- -- 85
2020-09-15 08:00:00 15.9 8 Sudoeste 13 Oeste 0 -- -- 84
2020-09-15 07:00:00 16.2 9 Oeste 12 Sudoeste 0 -- -- 80
2020-09-15 06:00:00 16.4 12 Sudoeste 13 Sudoeste 0 -- -- 79
2020-09-15 05:00:00 17.8 12 Sudoeste 16 Oeste 0 -- -- 74
2020-09-15 04:00:00 18.5 11 Oeste 17 Oeste 0 -- -- 73
2020-09-15 03:00:00 19.1 11 Oeste 23 Oeste 0 -- -- 68
2020-09-15 02:00:00 20 14 Oeste 20 Oeste 0 -- -- 63
2020-09-15 01:00:00 21.3 14 Oeste 26 Oeste 0 -- -- 57
2020-09-15 00:00:00 22.2 16 Oeste 24 Oeste 0 -- -- 51
2020-09-14 23:00:00 23.2 19 Oeste 24 Oeste 0 -- -- 50
2020-09-14 22:00:00 24.1 15 Oeste 20 Oeste 0 -- -- 49
2020-09-14 21:00:00 25.4 17 Oeste 26 Oeste 0 -- -- 47
2020-09-14 20:00:00 28.4 19 Sudoeste 36 Sudoeste 0 -- -- 37
2020-09-14 19:00:00 30.1 23 Sudoeste 39 Sudoeste 0 -- -- 34
2020-09-14 18:00:00 30 19 Sur 35 Sudoeste 0 -- -- 37
2020-09-14 17:00:00 31.1 22 Sudoeste 39 Sur 0 -- -- 35
2020-09-14 16:00:00 30.5 21 Sudoeste 38 Sudoeste 0 -- -- 39
2020-09-14 15:00:00 30.4 24 Sudoeste 39 Sudoeste 0 -- -- 38
2020-09-14 14:00:00 28.6 16 Sudoeste 41 Sur 0 -- -- 41
2020-09-14 13:00:00 28.1 15 Sur 28 Sur 0 -- -- 42
2020-09-14 12:00:00 25.8 9 Este 18 Este 0 -- -- 52
2020-09-14 11:00:00 25 6 Este 14 Este 0 -- -- 57
2020-09-14 10:00:00 23.4 2 Norte 5 Nordeste 0 -- -- 61
2020-09-14 09:00:00 21.1 3 Oeste 7 Oeste 0 -- -- 69
2020-09-14 08:00:00 21 5 Oeste 7 Oeste 0 -- -- 68
2020-09-14 07:00:00 21.5 0 Calma 2 Sur 0 -- -- 66
2020-09-14 06:00:00 21.5 3 Sur 9 Sudoeste 0 -- -- 66
2020-09-14 05:00:00 21.7 9 Sudoeste 14 Sur 0 -- -- 64
2020-09-14 04:00:00 22 15 Sur 19 Sudoeste 0 -- -- 62
2020-09-14 03:00:00 22.5 10 Sur 18 Sudoeste 0 -- -- 59
2020-09-14 02:00:00 22.9 13 Sudoeste 18 Sur 0 -- -- 56
2020-09-14 01:00:00 24 8 Sudoeste 14 Sudoeste 0 -- -- 49
2020-09-14 00:00:00 25.4 10 Sudoeste 22 Oeste 0 -- -- 39
2020-09-13 23:00:00 26.1 13 Sudoeste 18 Sur 0 -- -- 34
2020-09-13 22:00:00 28.5 7 Sur 10 Sudoeste 0 -- -- 29
2020-09-13 21:00:00 29.7 10 Sudoeste 19 Sudeste 0 -- -- 26
2020-09-13 20:00:00 32.5 17 Sudeste 37 Sudeste 0 -- -- 22
2020-09-13 19:00:00 34.5 24 Sudeste 41 Sudeste 0 -- -- 20
2020-09-13 18:00:00 34.9 19 Sudeste 42 Sur 0 -- -- 20
2020-09-13 17:00:00 35.2 21 Sur 41 Sudeste 0 -- -- 20
2020-09-13 16:00:00 34.3 25 Sur 37 Sur 0 -- -- 20
2020-09-13 15:00:00 34.2 22 Sudeste 37 Sudeste 0 -- -- 19
2020-09-13 14:00:00 31.3 17 Sudeste 33 Sudeste 0 -- -- 24
2020-09-13 13:00:00 30.6 14 Sudeste 28 Este 0 -- -- 27
2020-09-13 12:00:00 30 15 Este 31 Sudeste 0 -- -- 27
2020-09-13 11:00:00 28.1 20 Sudeste 31 Sudeste 0 -- -- 30
2020-09-13 10:00:00 24.5 12 Este 21 Este 0 -- -- 34
2020-09-13 09:00:00 22.4 10 Este 17 Este 0 -- -- 39
2020-09-13 08:00:00 23.1 9 Este 19 Sudeste 0 -- -- 40
2020-09-13 07:00:00 23.5 14 Sudeste 20 Sudeste 0 -- -- 36
2020-09-13 06:00:00 23.9 14 Sudeste 19 Sudeste 0 -- -- 35
2020-09-13 05:00:00 24.9 9 Este 17 Sudeste 0 -- -- 33
2020-09-13 04:00:00 26.4 12 Sudeste 18 Este 0 -- -- 30
2020-09-13 03:00:00 25.8 12 Sudeste 18 Sudeste 0 -- -- 31
2020-09-13 02:00:00 27.3 9 Este 17 Este 0 -- -- 29
2020-09-13 01:00:00 27.5 16 Este 20 Este 0 -- -- 28
2020-09-13 00:00:00 27.4 14 Este 16 Este 0 -- -- 28
2020-09-12 23:00:00 27.6 10 Nordeste 11 Este 0 -- -- 28
2020-09-12 22:00:00 29.9 7 Este 11 Sudeste 0 -- -- 25
2020-09-12 21:00:00 30.4 8 Sudeste 18 Sur 0 -- -- 25
2020-09-12 20:00:00 32.8 14 Sur 24 Sudeste 0 -- -- 22
2020-09-12 19:00:00 33.8 13 Sur 28 Sudeste 0 -- -- 20
2020-09-12 18:00:00 34.5 9 Sudeste 33 Sur 0 -- -- 19
2020-09-12 17:00:00 35.9 14 Sur 28 Sudeste 0 -- -- 19
2020-09-12 16:00:00 35.2 14 Sur 24 Sudeste 0 -- -- 19
2020-09-12 15:00:00 34.4 12 Sudeste 27 Sur 0 -- -- 19
2020-09-12 14:00:00 33.9 15 Este 27 Sudeste 0 -- -- 20
2020-09-12 13:00:00 32.5 13 Este 25 Sudeste 0 -- -- 21
2020-09-12 12:00:00 30.6 14 Sudeste 24 Este 0 -- -- 23
2020-09-12 11:00:00 28.6 13 Este 24 Este 0 -- -- 25
2020-09-12 10:00:00 25 13 Este 30 Este 0 -- -- 31
2020-09-12 09:00:00 22.2 18 Este 26 Este 0 -- -- 37
2020-09-12 08:00:00 21.3 18 Este 31 Este 0 -- -- 38
2020-09-12 07:00:00 21.5 18 Este 23 Nordeste 0 -- -- 35
2020-09-12 06:00:00 22.3 9 Este 13 Este 0 -- -- 34
2020-09-12 05:00:00 23.2 10 Nordeste 14 Nordeste 0 -- -- 33
2020-09-12 04:00:00 23.6 13 Nordeste 14 Nordeste 0 -- -- 32
2020-09-12 03:00:00 23.9 9 Nordeste 12 Norte 0 -- -- 30
2020-09-12 02:00:00 26.4 5 Oeste 18 Sudoeste 0 -- -- 25
2020-09-12 01:00:00 28.4 2 Sudeste 5 Sur 0 -- -- 23
2020-09-12 00:00:00 27.2 5 Sur 14 Sudoeste 0 -- -- 24
2020-09-11 23:00:00 28.5 8 Nordeste 9 Nordeste 0 -- -- 22
2020-09-11 22:00:00 28.3 9 Nordeste 10 Nordeste 0 -- -- 22
2020-09-11 21:00:00 29.3 8 Norte 10 Nordeste 0 -- -- 22
2020-09-11 20:00:00 32.2 6 Norte 19 Noroeste 0 -- -- 18
2020-09-11 19:00:00 34 6 Oeste 21 Sur 0 -- -- 17
2020-09-11 18:00:00 34.2 4 Oeste 21 Oeste 0 -- -- 17
2020-09-11 17:00:00 34.2 12 Oeste 25 Oeste 0 -- -- 17
2020-09-11 16:00:00 34.1 9 Noroeste 20 Norte 0 -- -- 17
2020-09-11 15:00:00 33.7 6 Sudoeste 18 Sudoeste 0 -- -- 18
2020-09-11 14:00:00 33.1 9 Sur 18 Sudeste 0 -- -- 19
2020-09-11 13:00:00 30.5 9 Este 21 Este 0 -- -- 23
2020-09-11 12:00:00 28.3 10 Este 24 Este 0 -- -- 26
2020-09-11 11:00:00 26.6 17 Este 27 Este 0 -- -- 30
2020-09-11 10:00:00 23.5 12 Este 25 Este 0 -- -- 36
2020-09-11 09:00:00 21 17 Este 27 Este 0 -- -- 40
2020-09-11 08:00:00 18.8 10 Este 19 Nordeste 0 -- -- 42
2020-09-11 07:00:00 21.3 2 Este 9 Este 0 -- -- 39
2020-09-11 06:00:00 20 0 Calma 6 Nordeste 0 -- -- 44
2020-09-11 05:00:00 20.6 5 Norte 9 Noroeste 0 -- -- 46
2020-09-11 04:00:00 20.6 9 Noroeste -- -- 0 -- -- 46
2020-09-11 03:00:00 21.1 11 Noroeste 13 Noroeste 0 -- -- 45
2020-09-11 02:00:00 22.4 10 Oeste 12 Norte 0 -- -- 36
2020-09-11 01:00:00 21.9 14 Norte 22 Norte 0 -- -- 35
2020-09-11 00:00:00 26 12 Oeste 17 Oeste 0 -- -- 23
2020-09-10 23:00:00 28.3 5 Oeste 6 Sudoeste 0 -- -- 21
2020-09-10 22:00:00 28.2 6 Sudoeste 8 Sudoeste 0 -- -- 21
2020-09-10 21:00:00 29.5 5 Oeste 7 Oeste 0 -- -- 20
2020-09-10 20:00:00 31.8 3 Nordeste 12 Nordeste 0 -- -- 19
2020-09-10 19:00:00 33 4 Noroeste 24 Nordeste 0 -- -- 18
2020-09-10 18:00:00 32.7 9 Nordeste 19 Norte 0 -- -- 18
2020-09-10 17:00:00 33.3 13 Norte 30 Norte 0 -- -- 18
2020-09-10 16:00:00 32.9 9 Noroeste 22 Noroeste 0 -- -- 19
2020-09-10 15:00:00 32.1 7 Oeste 21 Norte 0 -- -- 20
2020-09-10 14:00:00 31.3 9 Este 18 Este 0 -- -- 22
2020-09-10 13:00:00 29.8 14 Este 28 Nordeste 0 -- -- 26
2020-09-10 12:00:00 28.2 10 Este 21 Este 0 -- -- 27
2020-09-10 11:00:00 25.9 8 Este 24 Este 0 -- -- 31
2020-09-10 10:00:00 23 14 Este 20 Este 0 -- -- 35
2020-09-10 09:00:00 20.4 11 Nordeste 18 Nordeste 0 -- -- 38
2020-09-10 08:00:00 17.9 13 Nordeste 16 Nordeste 0 -- -- 44
2020-09-10 07:00:00 18.1 10 Norte 15 Nordeste 0 -- -- 43
2020-09-10 06:00:00 19.5 15 Nordeste 17 Nordeste 0 -- -- 39
2020-09-10 05:00:00 20.1 8 Noroeste 13 Norte 0 -- -- 40
2020-09-10 04:00:00 21 9 Noroeste 10 Noroeste 0 -- -- 34
2020-09-10 03:00:00 23.3 4 Norte 10 Norte 0 -- -- 28
2020-09-10 02:00:00 22.6 10 Norte 22 Noroeste 0 -- -- 29
2020-09-10 01:00:00 26.1 5 Noroeste 6 Noroeste 0 -- -- 23
2020-09-10 00:00:00 26.4 3 Oeste 5 Oeste 0 -- -- 22
2020-09-09 23:00:00 26.6 3 Oeste -- -- 0 -- -- 22
2020-09-09 22:00:00 26.9 4 Noroeste 5 Noroeste 0 -- -- 22
2020-09-09 21:00:00 27.9 4 Norte 9 Norte 0 -- -- 20
2020-09-09 20:00:00 30.2 7 Norte 17 Norte 0 -- -- 18
2020-09-09 19:00:00 31.1 11 Norte 35 Norte 0 -- -- 17
2020-09-09 18:00:00 31.3 9 Nordeste 19 Nordeste 0 -- -- 20
2020-09-09 17:00:00 31.5 9 Nordeste 22 Nordeste 0 -- -- 19
2020-09-09 16:00:00 31.2 12 Nordeste 20 Este 0 -- -- 19
2020-09-09 15:00:00 30.2 10 Nordeste 25 Este 0 -- -- 23
2020-09-09 14:00:00 29.9 5 Sudeste 20 Este 0 -- -- 26
2020-09-09 13:00:00 28.8 9 Sudeste 30 Sudeste 0 -- -- 28
2020-09-09 12:00:00 26.7 12 Sudeste 24 Este 0 -- -- 31
2020-09-09 11:00:00 25 16 Sudeste 30 Este 0 -- -- 33
2020-09-09 10:00:00 22.5 17 Este 30 Este 0 -- -- 38
2020-09-09 09:00:00 19.3 6 Sudeste 22 Este 0 -- -- 41
2020-09-09 08:00:00 17.2 18 Este 23 Este 0 -- -- 45
2020-09-09 07:00:00 17.9 18 Este 22 Este 0 -- -- 43
2020-09-09 06:00:00 18 19 Nordeste 23 Nordeste 0 -- -- 41
2020-09-09 05:00:00 18.5 18 Nordeste 21 Nordeste 0 -- -- 39
2020-09-09 04:00:00 19.4 15 Este 22 Nordeste 0 -- -- 37
2020-09-09 03:00:00 20 17 Este 25 Este 0 -- -- 35
2020-09-09 02:00:00 20.8 18 Nordeste 26 Este 0 -- -- 34
2020-09-09 01:00:00 21.6 18 Este 23 Nordeste 0 -- -- 34
2020-09-09 00:00:00 21.5 18 Este 21 Este 0 -- -- 34
2020-09-08 23:00:00 22.5 17 Este 22 Este 0 -- -- 30
2020-09-08 22:00:00 23.2 17 Este 22 Nordeste 0 -- -- 27
2020-09-08 21:00:00 24.4 15 Nordeste 19 Nordeste 0 -- -- 27
2020-09-08 20:00:00 26.9 11 Nordeste 21 Nordeste 0 -- -- 25
2020-09-08 19:00:00 28.8 14 Este 24 Este 0 -- -- 21
2020-09-08 18:00:00 28.8 11 Nordeste 26 Nordeste 0 -- -- 19
2020-09-08 17:00:00 28.4 13 Este 28 Este 0 -- -- 24
2020-09-08 16:00:00 28.3 13 Nordeste 31 Nordeste 0 -- -- 24
2020-09-08 15:00:00 27.7 18 Nordeste 36 Este 0 -- -- 27
2020-09-08 14:00:00 26.7 24 Este 40 Este 0 -- -- 30
2020-09-08 13:00:00 25.1 31 Este 44 Este 0 -- -- 33
2020-09-08 12:00:00 23.4 32 Este 45 Este 0 -- -- 37
2020-09-08 11:00:00 21.4 30 Este 47 Este 0 -- -- 41
2020-09-08 10:00:00 19.5 33 Este 50 Este 0 -- -- 45
2020-09-08 09:00:00 18.2 34 Este 48 Este 0 -- -- 45
2020-09-08 08:00:00 17.5 31 Este 45 Este 0 -- -- 44
2020-09-08 07:00:00 18.4 30 Este 40 Este 0 -- -- 38
2020-09-08 06:00:00 19 29 Este 39 Este 0 -- -- 35
2020-09-08 05:00:00 18.2 24 Nordeste 34 Nordeste 0 -- -- 40
2020-09-08 04:00:00 18.3 20 Nordeste 25 Nordeste 0 -- -- 41
2020-09-08 03:00:00 19.3 19 Nordeste 28 Nordeste 0 -- -- 39
2020-09-08 02:00:00 20.3 21 Nordeste 30 Nordeste 0 -- -- 37
2020-09-08 01:00:00 21.3 22 Nordeste 38 Nordeste 0 -- -- 35
2020-09-08 00:00:00 22.2 20 Nordeste 34 Nordeste 0 -- -- 33
2020-09-07 23:00:00 23.7 25 Nordeste 40 Nordeste 0 -- -- 28
2020-09-07 22:00:00 24.9 21 Nordeste 32 Nordeste 0 -- -- 25
2020-09-07 21:00:00 26.5 15 Nordeste 22 Nordeste 0 -- -- 24
2020-09-07 20:00:00 29.8 16 Nordeste 23 Nordeste 0 -- -- 23
2020-09-07 19:00:00 31.4 13 Nordeste 30 Nordeste 0 -- -- 21
2020-09-07 18:00:00 32.1 13 Nordeste 33 Nordeste 0 -- -- 20
2020-09-07 17:00:00 31.9 17 Nordeste 37 Nordeste 0 -- -- 21
2020-09-07 16:00:00 31.1 20 Nordeste 36 Nordeste 0 -- -- 22
2020-09-07 15:00:00 30.6 21 Nordeste 31 Norte 0 -- -- 24
2020-09-07 14:00:00 29.4 21 Nordeste 31 Nordeste 0 -- -- 26
2020-09-07 13:00:00 27.6 21 Nordeste 30 Nordeste 0 -- -- 30
2020-09-07 12:00:00 25.8 20 Nordeste 28 Nordeste 0 -- -- 33
2020-09-07 11:00:00 23.3 22 Nordeste 41 Nordeste 0 -- -- 37
2020-09-07 10:00:00 20.9 32 Nordeste 44 Nordeste 0 -- -- 40
2020-09-07 09:00:00 19.4 29 Nordeste 37 Nordeste 0 -- -- 44
2020-09-07 08:00:00 19.4 27 Nordeste 36 Nordeste 0 -- -- 44
2020-09-07 07:00:00 20.1 18 Nordeste 30 Nordeste 0 -- -- 45
2020-09-07 06:00:00 21.5 20 Nordeste 28 Nordeste 0 -- -- 45
2020-09-07 05:00:00 21.8 14 Norte 19 Nordeste 0 -- -- 46
2020-09-07 04:00:00 22.9 8 Norte 18 Nordeste 0 -- -- 43
2020-09-07 03:00:00 23.9 16 Nordeste 18 Nordeste 0 -- -- 41
2020-09-07 02:00:00 24.6 17 Nordeste 20 Norte 0 -- -- 39
2020-09-07 01:00:00 25.5 16 Nordeste 22 Nordeste 0 -- -- 35
2020-09-07 00:00:00 26.4 17 Nordeste 19 Nordeste 0 -- -- 31
2020-09-06 23:00:00 29.6 6 Norte 9 Norte 0 -- -- 25
2020-09-06 22:00:00 30.5 3 Noroeste 4 Noroeste 0 -- -- 23
2020-09-06 21:00:00 31.6 3 Norte 9 Nordeste 0 -- -- 22
2020-09-06 20:00:00 33.9 5 Norte 17 Oeste 0 -- -- 20
2020-09-06 19:00:00 34.9 11 Noroeste 30 Oeste 0 -- -- 20
2020-09-06 18:00:00 35.5 6 Oeste 23 Noroeste 0 -- -- 20
2020-09-06 17:00:00 35.3 10 Noroeste 22 Nordeste 0 -- -- 21
2020-09-06 16:00:00 35.3 9 Oeste 19 Noroeste 0 -- -- 22
2020-09-06 15:00:00 34.5 6 Norte 16 Sudeste 0 -- -- 22
2020-09-06 14:00:00 33.1 8 Este 20 Este 0 -- -- 23
2020-09-06 13:00:00 31.1 10 Este 22 Este 0 -- -- 26
2020-09-06 12:00:00 29.2 11 Este 23 Este 0 -- -- 35
2020-09-06 11:00:00 26.6 16 Este 32 Este 0 -- -- 40
2020-09-06 10:00:00 24.2 21 Este 30 Este 0 -- -- 44
2020-09-06 09:00:00 21.8 11 Nordeste 28 Nordeste 0 -- -- 44
2020-09-06 08:00:00 20.7 9 Nordeste 30 Este 0 -- -- 44
2020-09-06 07:00:00 22.3 24 Este 33 Nordeste 0 -- -- 39
2020-09-06 06:00:00 20.8 19 Nordeste 24 Nordeste 0 -- -- 46
2020-09-06 05:00:00 22.1 2 Norte 17 Nordeste 0 -- -- 41
2020-09-06 04:00:00 23 15 Nordeste 21 Nordeste 0 -- -- 38
2020-09-06 03:00:00 22.7 13 Norte 15 Norte 0 -- -- 38
2020-09-06 02:00:00 25.9 12 Noroeste 14 Noroeste 0 -- -- 29
2020-09-06 01:00:00 25.5 12 Noroeste 18 Noroeste 0 -- -- 29
2020-09-06 00:00:00 28.3 4 Sudeste 10 Sur 0 -- -- 24
2020-09-05 23:00:00 29.9 6 Noroeste -- -- 0 -- -- 23
2020-09-05 22:00:00 30.9 4 Sudoeste 5 Oeste 0 -- -- 22
2020-09-05 21:00:00 31.9 3 Sudeste 10 Este 0 -- -- 21
2020-09-05 20:00:00 33.8 3 Este 16 Sudeste 0 -- -- 20
2020-09-05 19:00:00 35 6 Sur 17 Sur 0 -- -- 19
2020-09-05 18:00:00 35.5 8 Sudeste 18 Sur 0 -- -- 19
2020-09-05 17:00:00 35.3 9 Este 22 Sur 0 -- -- 19
2020-09-05 16:00:00 35.1 6 Nordeste 22 Este 0 -- -- 19
2020-09-05 15:00:00 34 10 Este 22 Este 0 -- -- 20
2020-09-05 14:00:00 33.2 8 Este 22 Sudeste 0 -- -- 20
2020-09-05 13:00:00 31.6 12 Este 22 Este 0 -- -- 22
2020-09-05 12:00:00 29.9 11 Este 22 Este 0 -- -- 24
2020-09-05 11:00:00 28 12 Este 21 Este 0 -- -- 26
2020-09-05 10:00:00 26.1 12 Sudeste 20 Este 0 -- -- 29
2020-09-05 09:00:00 22.6 11 Este 25 Este 0 -- -- 36
2020-09-05 08:00:00 21.3 18 Nordeste 24 Nordeste 0 -- -- 39
2020-09-05 07:00:00 21.9 17 Nordeste 19 Nordeste 0 -- -- 40
2020-09-05 06:00:00 22.4 10 Nordeste 18 Nordeste 0 -- -- 39
2020-09-05 05:00:00 22.7 17 Nordeste 22 Nordeste 0 -- -- 39
2020-09-05 04:00:00 23.1 17 Nordeste 22 Nordeste 0 -- -- 38
2020-09-05 03:00:00 23.1 15 Nordeste 22 Norte 0 -- -- 39
2020-09-05 02:00:00 24.8 18 Norte 23 Norte 0 -- -- 35
2020-09-05 01:00:00 27.6 5 Sur 9 Sudeste 0 -- -- 29
2020-09-05 00:00:00 27 7 Sudeste 14 Nordeste 0 -- -- 28
2020-09-04 23:00:00 27.9 13 Nordeste 14 Nordeste 0 -- -- 27
2020-09-04 22:00:00 29.4 8 Nordeste 9 Nordeste 0 -- -- 25
2020-09-04 21:00:00 31 6 Nordeste 9 Nordeste 0 -- -- 23
2020-09-04 20:00:00 34.4 4 Nordeste 13 Este 0 -- -- 20
2020-09-04 19:00:00 34.8 6 Sudeste 16 Sudeste 0 -- -- 20
2020-09-04 18:00:00 35.3 11 Sur 20 Sudeste 0 -- -- 19
2020-09-04 17:00:00 34.7 8 Este 22 Este 0 -- -- 20
2020-09-04 16:00:00 33.9 6 Este 23 Sudeste 0 -- -- 21
2020-09-04 15:00:00 33.4 12 Este 21 Este 0 -- -- 22
2020-09-04 14:00:00 33.2 8 Este 17 Este 0 -- -- 24
2020-09-04 13:00:00 31.7 6 Sur 12 Sudeste 0 -- -- 26
2020-09-04 12:00:00 30 7 Sur 13 Sudoeste 0 -- -- 28
2020-09-04 11:00:00 27.8 8 Sur 16 Sur 0 -- -- 32
2020-09-04 10:00:00 25.1 12 Sudeste 19 Sudeste 0 -- -- 36
2020-09-04 09:00:00 21.7 10 Este 17 Sudeste 0 -- -- 42
2020-09-04 08:00:00 19.8 9 Sudeste 14 Sudeste 0 -- -- 46
2020-09-04 07:00:00 20.5 8 Sudeste 14 Sur 0 -- -- 42
2020-09-04 06:00:00 22.1 10 Sudeste 13 Sudeste 0 -- -- 36
2020-09-04 05:00:00 24.1 7 Sudeste 12 Sur 0 -- -- 33
2020-09-04 04:00:00 23.7 9 Sudeste 18 Sur 0 -- -- 31
2020-09-04 03:00:00 23.5 10 Sudeste 30 Sur 0 -- -- 29
2020-09-04 02:00:00 27.8 11 Este 12 Este 0 -- -- 22
2020-09-04 01:00:00 29 6 Sudeste 12 Sudeste 0 -- -- 22
2020-09-04 00:00:00 27.7 8 Este 17 Sur 0 -- -- 22
2020-09-03 23:00:00 27.1 15 Nordeste 17 Nordeste 0 -- -- 23
2020-09-03 22:00:00 27.5 14 Nordeste 15 Nordeste 0 -- -- 21
2020-09-03 21:00:00 29.1 10 Nordeste 15 Nordeste 0 -- -- 20
2020-09-03 20:00:00 33.3 3 Norte 14 Este 0 -- -- 17
2020-09-03 19:00:00 34.1 6 Sudeste 18 Este 0 -- -- 16
2020-09-03 18:00:00 34.6 9 Norte 24 Nordeste 0 -- -- 16
2020-09-03 17:00:00 34.4 13 Este 27 Este 0 -- -- 16
2020-09-03 16:00:00 33.9 9 Nordeste 25 Este 0 -- -- 16
2020-09-03 15:00:00 33.4 11 Sudeste 20 Sudeste 0 -- -- 17
2020-09-03 14:00:00 32.7 8 Este 19 Este 0 -- -- 19
2020-09-03 13:00:00 31.2 9 Este 21 Sudeste 0 -- -- 20
2020-09-03 12:00:00 29 12 Este 25 Este 0 -- -- 22
2020-09-03 11:00:00 26.8 19 Este 26 Este 0 -- -- 26
2020-09-03 10:00:00 24 16 Este 27 Este 0 -- -- 29
2020-09-03 09:00:00 20.6 17 Nordeste 23 Nordeste 0 -- -- 34
2020-09-03 08:00:00 18.6 12 Nordeste 17 Nordeste 0 -- -- 35
2020-09-03 07:00:00 20.1 15 Nordeste 17 Nordeste 0 -- -- 31
2020-09-03 06:00:00 21.2 7 Sudeste 15 Sudeste 0 -- -- 29
2020-09-03 05:00:00 20.2 15 Este 22 Nordeste 0 -- -- 32
2020-09-03 04:00:00 21 16 Nordeste 18 Nordeste 0 -- -- 31
2020-09-03 03:00:00 21.1 16 Nordeste 21 Nordeste 0 -- -- 30
2020-09-03 02:00:00 22.5 18 Nordeste 21 Nordeste 0 -- -- 28
2020-09-03 01:00:00 24.3 17 Nordeste 21 Nordeste 0 -- -- 24
2020-09-03 00:00:00 25.9 9 Nordeste 10 Nordeste 0 -- -- 20
2020-09-02 23:00:00 26.9 7 Nordeste 12 Nordeste 0 -- -- 19
2020-09-02 22:00:00 26.2 12 Nordeste 13 Nordeste 0 -- -- 21
2020-09-02 21:00:00 27.3 10 Norte 19 Norte 0 -- -- 21
2020-09-02 20:00:00 31.1 12 Norte 25 Nordeste 0 -- -- 17
2020-09-02 19:00:00 32.4 10 Nordeste 22 Nordeste 0 -- -- 15
2020-09-02 18:00:00 32.5 12 Nordeste 23 Norte 0 -- -- 16
2020-09-02 17:00:00 32.3 8 Norte 27 Nordeste 0 -- -- 17
2020-09-02 16:00:00 31.9 9 Este 31 Este 0 -- -- 17
2020-09-02 15:00:00 30.9 12 Nordeste 32 Sudeste 0 -- -- 19
2020-09-02 14:00:00 30 14 Este 27 Este 0 -- -- 22
2020-09-02 13:00:00 28.4 19 Este 35 Este 0 -- -- 23
2020-09-02 12:00:00 26.4 23 Este 37 Este 0 -- -- 26
2020-09-02 11:00:00 24.5 24 Este 36 Este 0 -- -- 29
2020-09-02 10:00:00 21.7 20 Este 38 Este 0 -- -- 34
2020-09-02 09:00:00 19.8 26 Nordeste 36 Nordeste 0 -- -- 36
2020-09-02 08:00:00 16.2 18 Nordeste 22 Nordeste 0 -- -- 50
2020-09-02 07:00:00 14.4 9 Norte 15 Norte 0 -- -- 70
2020-09-02 06:00:00 14.4 13 Norte 16 Norte 0 -- -- 67
2020-09-02 05:00:00 15.7 15 Norte 20 Norte 0 -- -- 61
2020-09-02 04:00:00 18.2 17 Nordeste 22 Norte 0 -- -- 55
2020-09-02 03:00:00 17.1 16 Norte 18 Norte 0 -- -- 58
2020-09-02 02:00:00 18 14 Norte 17 Noroeste 0 -- -- 54
2020-09-02 01:00:00 18.9 13 Noroeste 17 Noroeste 0 -- -- 51
2020-09-02 00:00:00 20.2 16 Noroeste 24 Oeste 0 -- -- 47
2020-09-01 23:00:00 22.3 18 Oeste 23 Oeste 0 -- -- 41
2020-09-01 22:00:00 23.7 15 Noroeste 27 Noroeste 0 -- -- 36
2020-09-01 21:00:00 29 2 Noroeste 13 Noroeste 0 -- -- 18
2020-09-01 20:00:00 30.4 8 Noroeste 22 Norte 0 -- -- 17
2020-09-01 19:00:00 30.9 10 Noroeste 26 Oeste 0 -- -- 18
2020-09-01 18:00:00 31.4 12 Noroeste 24 Noroeste 0 -- -- 17
2020-09-01 17:00:00 31.2 5 Nordeste 21 Oeste 0 -- -- 16
2020-09-01 16:00:00 30.8 9 Oeste 18 Noroeste 0 -- -- 15
2020-09-01 15:00:00 29.9 10 Oeste 21 Oeste 0 -- -- 14
2020-09-01 14:00:00 29.1 7 Sudoeste 19 Sudoeste 0 -- -- 18
2020-09-01 13:00:00 28 10 Sudoeste 19 Oeste 0 -- -- 19
2020-09-01 12:00:00 25.9 4 Este 11 Norte 0 -- -- 24
2020-09-01 11:00:00 23.4 5 Noroeste 9 Noroeste 0 -- -- 29
2020-09-01 10:00:00 22.6 4 Sudeste 11 Este 0 -- -- 28
2020-09-01 09:00:00 19.3 10 Nordeste 14 Nordeste 0 -- -- 32
2020-09-01 08:00:00 18.4 8 Nordeste 14 Nordeste 0 -- -- 36
2020-09-01 07:00:00 16.7 9 Norte 11 Norte 0 -- -- 40
2020-09-01 06:00:00 18.1 9 Este 14 Norte 0 -- -- 35
2020-09-01 05:00:00 18.8 10 Norte 12 Norte 0 -- -- 32
2020-09-01 04:00:00 21.2 2 Sur 7 Sudeste 0 -- -- 27
2020-09-01 03:00:00 20.2 5 Sudeste 6 Sudeste 0 -- -- 29
2020-09-01 02:00:00 19.9 3 Nordeste 17 Nordeste 0 -- -- 30
2020-09-01 01:00:00 23.8 5 Nordeste -- -- 0 -- -- 22
2020-09-01 00:00:00 23.2 8 Este 15 Nordeste 0 -- -- 23
2020-08-31 23:00:00 22.2 14 Nordeste 16 Nordeste 0 -- -- 26
2020-08-31 22:00:00 22.4 15 Nordeste 18 Nordeste 0 -- -- 25
2020-08-31 21:00:00 23.7 11 Norte 17 Norte 0 -- -- 21
2020-08-31 20:00:00 27.9 12 Norte 19 Norte 0 -- -- 18
2020-08-31 19:00:00 29 5 Nordeste 20 Noroeste 0 -- -- 17
2020-08-31 18:00:00 29 11 Norte 24 Noroeste 0 -- -- 18
2020-08-31 17:00:00 29.6 9 Oeste 21 Oeste 0 -- -- 17
2020-08-31 16:00:00 28.8 8 Norte 21 Oeste 0 -- -- 17
2020-08-31 15:00:00 27.4 8 Nordeste 19 Este 0 -- -- 19
2020-08-31 14:00:00 26.7 6 Norte 17 Sudeste 0 -- -- 21
2020-08-31 13:00:00 25.4 7 Este 19 Este 0 -- -- 24
2020-08-31 12:00:00 23.8 12 Este 26 Este 0 -- -- 27
2020-08-31 11:00:00 21.8 16 Este 31 Este 0 -- -- 32
2020-08-31 10:00:00 19.1 24 Este 35 Este 0 -- -- 37
2020-08-31 09:00:00 16.7 22 Este 34 Nordeste 0 -- -- 42
2020-08-31 08:00:00 15.1 21 Este 32 Este 0 -- -- 43
2020-08-31 07:00:00 15.5 24 Este 32 Este 0 -- -- 40
2020-08-31 06:00:00 15.4 22 Nordeste 28 Este 0 -- -- 40
2020-08-31 05:00:00 15.6 19 Nordeste 24 Nordeste 0 -- -- 41
2020-08-31 04:00:00 16.7 19 Nordeste 24 Nordeste 0 -- -- 38
2020-08-31 03:00:00 16.9 18 Nordeste 26 Nordeste 0 -- -- 38
2020-08-31 02:00:00 17.4 18 Nordeste 27 Nordeste 0 -- -- 36
2020-08-31 01:00:00 17.9 18 Nordeste 25 Nordeste 0 -- -- 35
2020-08-31 00:00:00 19.1 18 Nordeste 30 Nordeste 0 -- -- 33
2020-08-30 23:00:00 19.2 16 Nordeste 23 Norte 0 -- -- 31
2020-08-30 22:00:00 20.9 13 Nordeste 22 Norte 0 -- -- 27
2020-08-30 21:00:00 23.5 6 Nordeste 10 Noroeste 0 -- -- 25
2020-08-30 20:00:00 25.8 5 Norte 18 Nordeste 0 -- -- 22
2020-08-30 19:00:00 26 16 Nordeste 28 Nordeste 0 -- -- 23
2020-08-30 18:00:00 26.3 16 Nordeste 26 Norte 0 -- -- 21
2020-08-30 17:00:00 26.3 12 Norte 26 Norte 0 -- -- 24
2020-08-30 16:00:00 26.8 15 Norte 30 Norte 0 -- -- 24
2020-08-30 15:00:00 25 11 Nordeste 29 Norte 0 -- -- 28
2020-08-30 14:00:00 24.5 13 Nordeste 23 Nordeste 0 -- -- 29
2020-08-30 13:00:00 23.2 8 Nordeste 30 Este 0 -- -- 33
2020-08-30 12:00:00 22.3 14 Este 29 Nordeste 0 -- -- 36
2020-08-30 11:00:00 20.2 20 Este 31 Este 0 -- -- 41
2020-08-30 10:00:00 17.4 21 Nordeste 28 Nordeste 0 -- -- 49
2020-08-30 09:00:00 14.4 19 Nordeste 27 Nordeste 0 -- -- 60
2020-08-30 08:00:00 12.6 13 Nordeste 22 Nordeste 0 -- -- 64
2020-08-30 07:00:00 11.4 15 Norte 19 Norte 0 -- -- 66
2020-08-30 06:00:00 12.5 15 Norte 17 Norte 0 -- -- 62
2020-08-30 05:00:00 13.4 8 Norte 14 Norte 0 -- -- 59
2020-08-30 04:00:00 14.7 13 Norte 20 Norte 0 -- -- 56
2020-08-30 03:00:00 16.3 15 Norte 25 Norte 0 -- -- 50
2020-08-30 02:00:00 17.4 21 Norte 33 Norte 0 -- -- 46
2020-08-30 01:00:00 18 22 Norte 33 Norte 0 -- -- 44
2020-08-30 00:00:00 18.8 18 Norte 28 Norte 0 -- -- 40
2020-08-29 23:00:00 19.1 18 Norte 26 Norte 0 -- -- 40
2020-08-29 22:00:00 19.6 15 Norte 24 Norte 0 -- -- 39
2020-08-29 21:00:00 22.4 20 Norte 33 Norte 0 -- -- 32
2020-08-29 20:00:00 24.4 22 Norte 35 Norte 0 -- -- 27
2020-08-29 19:00:00 25.5 25 Norte 41 Norte 0 -- -- 26
2020-08-29 18:00:00 25.8 23 Norte 40 Norte 0 -- -- 25
2020-08-29 17:00:00 25.7 27 Norte 45 Noroeste 0 -- -- 27
2020-08-29 16:00:00 24.9 22 Norte 39 Norte 0 -- -- 29
2020-08-29 15:00:00 24.3 24 Norte 40 Norte 0 -- -- 31
2020-08-29 14:00:00 23.2 26 Norte 44 Norte 0 -- -- 34
2020-08-29 13:00:00 21.8 28 Norte 47 Norte 0 -- -- 35
2020-08-29 12:00:00 20.3 29 Norte 43 Norte 0 -- -- 42
2020-08-29 11:00:00 18.3 32 Norte 45 Norte 0 -- -- 47
2020-08-29 10:00:00 16.5 34 Norte 46 Norte 0 -- -- 52
2020-08-29 09:00:00 14.7 26 Norte 33 Norte 0 -- -- 56
2020-08-29 08:00:00 13.1 17 Norte 32 Norte 0 -- -- 60
2020-08-29 07:00:00 13.4 24 Norte 36 Norte 0 -- -- 56
2020-08-29 06:00:00 13.8 21 Norte 36 Norte 0 -- -- 57
2020-08-29 05:00:00 14.1 19 Norte 27 Norte 0 -- -- 56
2020-08-29 04:00:00 15.3 21 Norte 33 Norte 0 -- -- 54
2020-08-29 03:00:00 14.9 17 Norte 21 Noroeste 0 -- -- 62
2020-08-29 02:00:00 15.4 16 Noroeste 30 Noroeste 0 -- -- 65
2020-08-29 01:00:00 17 25 Noroeste 37 Noroeste 0 -- -- 60
2020-08-29 00:00:00 18.2 26 Noroeste 36 Noroeste 0 -- -- 57
2020-08-28 23:00:00 19.4 28 Noroeste 41 Noroeste 0 -- -- 53
2020-08-28 22:00:00 20.6 28 Noroeste 46 Oeste 0 -- -- 50
2020-08-28 21:00:00 23.2 37 Noroeste 50 Noroeste 0 -- -- 42
2020-08-28 20:00:00 26.6 35 Oeste 48 Noroeste 0 -- -- 32
2020-08-28 19:00:00 28.9 30 Oeste 41 Noroeste 0 -- -- 26
2020-08-28 18:00:00 30.1 26 Oeste 39 Noroeste 0 -- -- 18
2020-08-28 17:00:00 30.5 24 Noroeste 40 Oeste 0 -- -- 16
2020-08-28 16:00:00 30 26 Oeste 40 Oeste 0 -- -- 20
2020-08-28 15:00:00 29.6 24 Noroeste 41 Noroeste 0 -- -- 26
2020-08-28 14:00:00 28.4 26 Noroeste 38 Noroeste 0 -- -- 36
2020-08-28 13:00:00 27.2 22 Noroeste 39 Noroeste 0 -- -- 44
2020-08-28 12:00:00 26.3 27 Noroeste 41 Noroeste 0 -- -- 44
2020-08-28 11:00:00 24.7 31 Noroeste 40 Noroeste 0 -- -- 50
2020-08-28 10:00:00 22.2 24 Noroeste 32 Noroeste 0 -- -- 64
2020-08-28 09:00:00 19.8 18 Noroeste 24 Noroeste 0 -- -- 70
2020-08-28 08:00:00 17.2 13 Noroeste 18 Noroeste 0 -- -- 77
2020-08-28 07:00:00 17.2 15 Noroeste 20 Noroeste 0 -- -- 77
2020-08-28 06:00:00 17.8 14 Noroeste 20 Noroeste 0 -- -- 76
2020-08-28 05:00:00 18.2 16 Noroeste 21 Noroeste 0 -- -- 75
2020-08-28 04:00:00 19.4 18 Noroeste 24 Noroeste 0 -- -- 74
2020-08-28 03:00:00 20.3 17 Noroeste 22 Noroeste 0 -- -- 72
2020-08-28 02:00:00 21.5 17 Noroeste 24 Noroeste 0 -- -- 69
2020-08-28 01:00:00 23.2 19 Noroeste 25 Noroeste 0 -- -- 62
2020-08-28 00:00:00 25.1 21 Noroeste 32 Noroeste 0 -- -- 55
2020-08-27 23:00:00 26.8 21 Noroeste 29 Noroeste 0 -- -- 48
2020-08-27 22:00:00 28.6 24 Noroeste 39 Oeste 0 -- -- 42
2020-08-27 21:00:00 30.9 29 Oeste 42 Oeste 0 -- -- 36
2020-08-27 20:00:00 33.8 29 Oeste 37 Oeste 0 -- -- 31
2020-08-27 19:00:00 36.4 18 Noroeste 36 Noroeste 0 -- -- 23
2020-08-27 18:00:00 37.2 13 Noroeste 28 Oeste 0 -- -- 23
2020-08-27 17:00:00 36.3 15 Norte 28 Sudoeste 0 -- -- 26
2020-08-27 16:00:00 35.7 9 Noroeste 33 Oeste 0 -- -- 27
2020-08-27 15:00:00 35.1 6 Norte 26 Oeste 0 -- -- 28
2020-08-27 14:00:00 34.2 8 Noroeste 18 Noroeste 0 -- -- 33
2020-08-27 13:00:00 32.3 6 Norte 19 Norte 0 -- -- 39
2020-08-27 12:00:00 30.3 9 Norte 17 Norte 0 -- -- 45
2020-08-27 11:00:00 27.6 9 Noroeste 15 Noroeste 0 -- -- 53
2020-08-27 10:00:00 24.4 5 Norte 15 Noroeste 0 -- -- 62
2020-08-27 09:00:00 21.1 11 Noroeste 14 Noroeste 0 -- -- 73
2020-08-27 08:00:00 19.4 10 Noroeste 13 Noroeste 0 -- -- 79
2020-08-27 07:00:00 19.7 11 Noroeste 14 Noroeste 0 -- -- 76
2020-08-27 06:00:00 20.3 13 Noroeste 14 Noroeste 0 -- -- 72
2020-08-27 05:00:00 21.2 12 Noroeste 14 Noroeste 0 -- -- 68
2020-08-27 04:00:00 22.3 12 Noroeste 14 Noroeste 0 -- -- 64
2020-08-27 03:00:00 23.2 9 Noroeste 14 Noroeste 0 -- -- 60
2020-08-27 02:00:00 24 13 Noroeste 16 Noroeste 0 -- -- 55
2020-08-27 01:00:00 24.9 13 Noroeste 21 Noroeste 0 -- -- 53
2020-08-27 00:00:00 25.8 18 Noroeste 28 Noroeste 0 -- -- 51
2020-08-26 23:00:00 27.8 22 Oeste 35 Oeste 0 -- -- 43
2020-08-26 22:00:00 30.3 26 Oeste 33 Oeste 0 -- -- 36
2020-08-26 21:00:00 34.3 7 Oeste 15 Oeste 0 -- -- 17
2020-08-26 20:00:00 36.7 11 Noroeste 19 Oeste 0 -- -- 15
2020-08-26 19:00:00 37.5 7 Norte 21 Sudoeste 0 -- -- 14
2020-08-26 18:00:00 38.1 9 Oeste 25 Oeste 0 -- -- 13
2020-08-26 17:00:00 37.6 7 Oeste 21 Oeste 0 -- -- 14
2020-08-26 16:00:00 36.6 8 Noroeste 19 Oeste 0 -- -- 13
2020-08-26 15:00:00 35.5 9 Sudoeste 21 Oeste 0 -- -- 14
2020-08-26 14:00:00 34.3 8 Sur 23 Oeste 0 -- -- 18
2020-08-26 13:00:00 32.3 10 Sudoeste 19 Sudoeste 0 -- -- 22
2020-08-26 12:00:00 30.3 7 Sudoeste 12 Noroeste 0 -- -- 31
2020-08-26 11:00:00 27.6 4 Norte 9 Noroeste 0 -- -- 41
2020-08-26 10:00:00 23.5 6 Noroeste 10 Noroeste 0 -- -- 54
2020-08-26 09:00:00 21.5 6 Noroeste 9 Noroeste 0 -- -- 59
2020-08-26 08:00:00 19.4 8 Noroeste 11 Oeste 0 -- -- 67
2020-08-26 07:00:00 20 6 Oeste 9 Noroeste 0 -- -- 61
2020-08-26 06:00:00 19.7 9 Noroeste 12 Noroeste 0 -- -- 63
2020-08-26 05:00:00 21.5 9 Oeste 12 Oeste 0 -- -- 54
2020-08-26 04:00:00 21.1 12 Noroeste 15 Noroeste 0 -- -- 54
2020-08-26 03:00:00 22.1 12 Noroeste 14 Noroeste 0 -- -- 50
2020-08-26 02:00:00 23.1 11 Noroeste 15 Noroeste 0 -- -- 47
2020-08-26 01:00:00 23.5 13 Noroeste 19 Noroeste 0 -- -- 46
2020-08-26 00:00:00 24.7 17 Noroeste 25 Noroeste 0 -- -- 37